CheckWX is a tool to help pilots better visualize weather data.  It is not intended as a substitute for an official pre-flight weather briefing.

17:42:31 UTC

ETNT METAR
Wittmundhafen Airport
Germany
Current

23 mins ago

ETNT 241720Z 27008KT 9999 SCT049 SCT120 07/M00 Q1023 BLU+
Observed
Mar-24 @ 17:20 UTC
Wind
  • 270° at 8 KTS
Visibility
10,000+ meters
Flight Rules
VFR
Cloud Levels
  • Scattered at 4,900' AGL
  • Scattered at 12,000' AGL
Temperature
C / 45°F
Dewpoint
C / 32°F
Humidity
61%
Altimeter
30.21" Hg
Pressure
1022.92 hPa
Previous

1 hour ago

ETNT 241620Z 27012KT 9999 FEW028 SCT120 08/01 Q1023 BLU+
Observed
Mar-24 @ 16:20 UTC
Wind
  • 270° at 12 KTS
Visibility
10,000+ meters
Flight Rules
VFR
Cloud Levels
  • Few at 2,800' AGL
  • Scattered at 12,000' AGL
Temperature
C / 46°F
Dewpoint
C / 34°F
Humidity
62%
Altimeter
30.21" Hg
Pressure
1022.92 hPa
Previous

2 hours ago

ETNT 241520Z 28011KT 9999 FEW029 09/00 Q1024 BLU+
Observed
Mar-24 @ 15:20 UTC
Wind
  • 280° at 11 KTS
Visibility
10,000+ meters
Flight Rules
VFR
Cloud Levels
  • Few at 2,900' AGL
Temperature
C / 48°F
Dewpoint
C / 32°F
Humidity
54%
Altimeter
30.24" Hg
Pressure
1023.92 hPa